createdAt,value
2022-11-28T00:01:24.017Z,8.40
2022-11-28T00:03:50.571Z,7.68
2022-11-28T00:06:18.084Z,11.57
2022-11-28T00:08:45.272Z,8.68
2022-11-28T00:11:13.724Z,7.95
2022-11-28T00:13:40.505Z,7.50
2022-11-28T00:16:09.328Z,9.43
2022-11-28T00:18:35.931Z,8.10
2022-11-28T00:21:08.298Z,8.40
2022-11-28T00:23:34.773Z,9.25
2022-11-28T00:26:06.088Z,8.20
2022-11-28T00:28:44.868Z,7.43
2022-11-28T00:31:16.163Z,7.95
2022-11-28T00:33:42.866Z,6.30
2022-11-28T00:36:34.360Z,7.53
2022-11-28T00:39:00.804Z,9.40
2022-11-28T00:41:29.139Z,6.55
2022-11-28T00:43:55.908Z,7.25
2022-11-28T00:46:23.333Z,8.43
2022-11-28T00:48:50.344Z,7.35
2022-11-28T00:51:23.310Z,8.85
2022-11-28T00:53:57.736Z,8.20
2022-11-28T00:56:30.857Z,8.25
2022-11-28T00:58:57.551Z,6.97
2022-11-28T01:01:27.929Z,8.02
2022-11-28T01:04:08.093Z,8.20
2022-11-28T01:06:40.348Z,7.65
2022-11-28T01:09:16.671Z,9.40
2022-11-28T01:14:11.989Z,8.60
2022-11-28T01:16:58.867Z,8.82
2022-11-28T01:19:25.292Z,7.68
2022-11-28T01:21:51.689Z,10.15
2022-11-28T01:25:07.126Z,9.00
2022-11-28T01:27:33.535Z,9.93
2022-11-28T01:29:59.957Z,9.88
2022-11-28T01:32:26.341Z,11.77
2022-11-28T01:34:52.803Z,7.55
2022-11-28T01:37:19.241Z,9.85
2022-11-28T01:39:45.687Z,10.95
2022-11-28T01:42:21.165Z,9.43
2022-11-28T01:44:47.758Z,8.38
2022-11-28T01:47:17.762Z,8.50
2022-11-28T01:49:47.094Z,9.05
2022-11-28T01:52:17.275Z,8.70
2022-11-28T01:55:15.490Z,7.78
2022-11-28T01:57:42.680Z,11.80
2022-11-28T02:00:12.347Z,7.00
2022-11-28T02:02:40.812Z,8.65
2022-11-28T02:05:08.171Z,6.95
2022-11-28T02:07:35.916Z,7.50
2022-11-28T02:10:05.689Z,7.93
2022-11-28T02:12:51.891Z,10.23
2022-11-28T02:15:36.690Z,9.63
2022-11-28T02:18:23.004Z,11.15
2022-11-28T02:20:55.490Z,8.10
2022-11-28T02:23:57.449Z,8.25
2022-11-28T02:26:45.191Z,7.95
2022-11-28T02:29:39.990Z,7.78
2022-11-28T02:32:16.337Z,10.02
2022-11-28T02:34:56.862Z,6.30
2022-11-28T02:37:26.834Z,6.30
2022-11-28T02:40:27.351Z,7.28
2022-11-28T02:43:11.695Z,6.05
2022-11-28T02:45:53.172Z,6.72
2022-11-28T02:48:49.900Z,5.28
2022-11-28T02:51:24.611Z,4.90
2022-11-28T02:53:55.348Z,6.35
2022-11-28T02:56:24.789Z,4.88
2022-11-28T02:58:51.288Z,6.53
2022-11-28T03:01:44.311Z,4.60
2022-11-28T03:04:31.655Z,7.28
2022-11-28T03:07:39.295Z,4.93
2022-11-28T03:10:43.137Z,5.65
2022-11-28T03:13:41.175Z,5.13
2022-11-28T03:16:07.771Z,5.63
2022-11-28T03:18:58.058Z,7.25
2022-11-28T03:21:38.521Z,4.95
2022-11-28T03:24:13.496Z,5.35
2022-11-28T03:26:51.353Z,4.72
2022-11-28T03:29:23.742Z,7.20
2022-11-28T03:31:59.066Z,6.07
2022-11-28T03:34:36.975Z,6.67
2022-11-28T03:37:10.161Z,6.68
2022-11-28T03:39:40.227Z,8.18
2022-11-28T03:42:24.533Z,8.02
2022-11-28T03:45:02.730Z,6.85
2022-11-28T03:47:35.076Z,5.43
2022-11-28T03:50:08.321Z,7.60
2022-11-28T03:52:48.883Z,7.00
2022-11-28T03:55:32.632Z,7.95
2022-11-28T03:58:30.096Z,7.47
2022-11-28T04:01:30.541Z,7.57
2022-11-28T04:04:10.029Z,5.82
2022-11-28T04:06:43.224Z,8.43
2022-11-28T04:09:18.852Z,6.43
2022-11-28T04:11:51.839Z,6.80
2022-11-28T04:14:18.181Z,7.00
2022-11-28T04:16:53.617Z,5.78
2022-11-28T04:19:28.918Z,7.15
2022-11-28T04:22:14.553Z,7.18
2022-11-28T04:24:55.020Z,11.85
2022-11-28T04:27:31.861Z,8.02
2022-11-28T04:30:02.042Z,5.78
2022-11-28T04:33:07.537Z,5.97
2022-11-28T04:35:38.790Z,6.18
2022-11-28T04:38:09.217Z,6.13
2022-11-28T04:41:07.780Z,6.10
2022-11-28T04:43:39.035Z,5.60
2022-11-28T04:46:12.585Z,7.57
2022-11-28T04:48:39.024Z,5.70
2022-11-28T04:51:23.137Z,7.10
2022-11-28T04:53:54.011Z,7.18
2022-11-28T04:57:02.409Z,6.20
2022-11-28T04:59:31.546Z,5.35
2022-11-28T05:02:02.706Z,7.30
2022-11-28T05:04:36.702Z,6.18
2022-11-28T05:07:05.953Z,5.20
2022-11-28T05:09:32.536Z,6.60
2022-11-28T05:12:09.181Z,5.72
2022-11-28T05:14:35.714Z,7.70
2022-11-28T05:17:02.253Z,5.70
2022-11-28T05:19:30.704Z,6.07
2022-11-28T05:22:08.349Z,5.13
2022-11-28T05:24:36.796Z,6.38
2022-11-28T05:27:03.506Z,4.68
2022-11-28T05:29:30.210Z,6.05
2022-11-28T05:32:00.761Z,9.13
2022-11-28T05:34:33.139Z,9.98
2022-11-28T05:36:59.639Z,9.40
2022-11-28T05:39:27.170Z,8.45
2022-11-28T05:42:17.720Z,6.88
2022-11-28T05:45:14.165Z,4.72
2022-11-28T05:47:40.572Z,5.50
2022-11-28T05:50:08.040Z,4.70
2022-11-28T05:52:34.595Z,4.78
2022-11-28T05:55:01.599Z,6.43
2022-11-28T05:57:29.996Z,7.15
2022-11-28T06:00:12.245Z,4.97
2022-11-28T06:02:38.852Z,5.15
2022-11-28T06:05:27.249Z,3.78
2022-11-28T06:07:52.300Z,11.85
2022-11-28T06:10:19.191Z,5.78
2022-11-28T06:12:45.595Z,5.20
2022-11-28T06:15:12.170Z,6.10
2022-11-28T06:17:38.638Z,6.10
2022-11-28T06:20:05.907Z,6.10
2022-11-28T06:22:32.384Z,6.35
2022-11-28T06:24:58.790Z,6.57
2022-11-28T06:27:34.828Z,7.22
2022-11-28T06:30:01.243Z,5.97
2022-11-28T06:32:27.657Z,17.08
2022-11-28T06:34:54.053Z,17.27
2022-11-28T06:37:26.660Z,13.63
2022-11-28T06:39:53.443Z,26.33
2022-11-28T06:42:19.984Z,62.58
2022-11-28T06:45:14.274Z,21.00
2022-11-28T06:47:48.880Z,15.40
2022-11-28T06:50:15.669Z,11.07
2022-11-28T06:52:55.806Z,15.77
2022-11-28T06:55:29.761Z,11.88
2022-11-28T06:57:56.236Z,12.80
2022-11-28T07:00:35.113Z,10.45
2022-11-28T07:03:04.707Z,14.30
2022-11-28T07:05:31.153Z,9.27
2022-11-28T07:07:58.349Z,8.43
2022-11-28T07:10:25.762Z,11.35
2022-11-28T07:13:02.410Z,7.47
2022-11-28T07:15:31.702Z,8.60
2022-11-28T07:18:04.457Z,7.07
2022-11-28T07:20:30.864Z,5.78
2022-11-28T07:22:57.292Z,10.45
2022-11-28T07:25:23.702Z,12.55
2022-11-28T07:27:50.122Z,11.52
2022-11-28T07:30:16.682Z,10.93
2022-11-28T07:32:43.093Z,9.05
2022-11-28T07:35:29.758Z,7.15
2022-11-28T07:37:56.207Z,6.05
2022-11-28T07:40:22.859Z,6.93
2022-11-28T07:42:49.317Z,8.07
2022-11-28T07:45:53.471Z,5.68
2022-11-28T07:48:16.171Z,6.78
2022-11-28T07:50:42.574Z,7.43
2022-11-28T07:53:08.974Z,8.70
2022-11-28T07:55:36.371Z,10.38
2022-11-28T07:58:05.894Z,8.07
2022-11-28T08:00:33.358Z,7.00
2022-11-28T08:02:59.876Z,9.10
2022-11-28T08:05:26.295Z,8.82
2022-11-28T08:07:52.735Z,11.80
2022-11-28T08:10:19.582Z,8.93
2022-11-28T08:12:46.012Z,7.85
2022-11-28T08:15:12.423Z,7.50
2022-11-28T08:17:38.854Z,7.05
2022-11-28T08:20:05.976Z,10.52
2022-11-28T08:22:32.421Z,11.68
2022-11-28T08:24:58.822Z,11.57
2022-11-28T08:27:25.264Z,10.60
2022-11-28T08:29:53.511Z,9.32
2022-11-28T08:32:20.448Z,8.90
2022-11-28T08:34:46.870Z,9.13
2022-11-28T08:37:13.290Z,12.82
2022-11-28T08:39:39.696Z,11.27
2022-11-28T08:42:06.169Z,10.88
2022-11-28T08:44:32.847Z,9.93
2022-11-28T08:46:59.258Z,12.70
2022-11-28T08:49:53.804Z,10.77
2022-11-28T08:52:20.223Z,11.00
2022-11-28T08:54:46.668Z,12.27
2022-11-28T08:57:13.089Z,10.38
2022-11-28T08:59:39.550Z,15.35
2022-11-28T09:02:06.542Z,14.23
2022-11-28T09:04:33.988Z,13.48
2022-11-28T09:07:00.477Z,11.52
2022-11-28T09:09:32.752Z,10.95
2022-11-28T09:11:59.461Z,16.35
2022-11-28T09:14:26.836Z,10.73
2022-11-28T09:16:53.442Z,10.63
2022-11-28T09:19:19.959Z,17.38
2022-11-28T09:21:57.504Z,10.52
2022-11-28T09:24:24.559Z,10.70
2022-11-28T09:26:50.969Z,18.40
2022-11-28T09:29:17.375Z,10.98
2022-11-28T09:31:47.308Z,8.82
2022-11-28T09:34:14.232Z,16.33
2022-11-28T09:36:40.864Z,11.38
2022-11-28T09:39:07.626Z,8.98
2022-11-28T09:41:49.211Z,9.95
2022-11-28T09:44:22.426Z,12.18
2022-11-28T09:46:53.477Z,14.50
2022-11-28T09:50:06.963Z,12.45
2022-11-28T09:53:10.788Z,29.10
2022-11-28T09:55:52.160Z,18.83
2022-11-28T09:58:43.397Z,12.80
2022-11-28T10:01:22.917Z,14.82
2022-11-28T10:04:12.752Z,11.40
2022-11-28T10:06:52.819Z,15.20
2022-11-28T10:09:51.258Z,8.55
2022-11-28T10:12:45.541Z,9.73
2022-11-28T10:15:39.925Z,8.40
2022-11-28T10:18:41.730Z,8.02
2022-11-28T10:21:31.216Z,13.75
2022-11-28T10:24:02.152Z,9.52
2022-11-28T10:26:36.086Z,8.07
2022-11-28T10:29:11.611Z,7.10
2022-11-28T10:31:44.072Z,6.33
2022-11-28T10:34:24.676Z,11.38
2022-11-28T10:37:00.763Z,9.85
2022-11-28T10:39:27.866Z,9.73
2022-11-28T10:42:13.650Z,8.75
2022-11-28T10:45:06.721Z,11.68
2022-11-28T10:47:51.451Z,9.25
2022-11-28T10:50:32.543Z,9.30
2022-11-28T10:53:15.380Z,9.70
2022-11-28T10:55:54.286Z,9.93
2022-11-28T10:58:29.719Z,9.73
2022-11-28T11:00:57.940Z,6.75
2022-11-28T11:03:37.999Z,8.23
2022-11-28T11:06:04.594Z,9.85
2022-11-28T11:08:37.165Z,11.35
2022-11-28T11:11:24.396Z,7.65
2022-11-28T11:14:00.422Z,7.68
2022-11-28T11:16:56.861Z,10.90
2022-11-28T11:19:35.999Z,8.40
2022-11-28T11:22:20.694Z,6.93
2022-11-28T11:25:20.403Z,10.95
2022-11-28T11:27:58.362Z,10.20
2022-11-28T11:30:34.729Z,8.50
2022-11-28T11:35:32.983Z,6.50
2022-11-28T11:38:37.785Z,6.93
2022-11-28T11:41:26.681Z,9.93
2022-11-28T11:43:53.103Z,7.03
2022-11-28T11:46:19.552Z,7.78
2022-11-28T11:48:48.050Z,7.90
2022-11-28T11:51:39.413Z,8.07
2022-11-28T11:54:16.503Z,7.93
2022-11-28T11:56:46.647Z,8.90
2022-11-28T11:59:18.026Z,7.38
2022-11-28T12:01:46.705Z,7.20
2022-11-28T12:04:43.919Z,13.45
2022-11-28T12:07:18.681Z,11.25
2022-11-28T12:09:48.042Z,10.40
2022-11-28T12:12:25.074Z,14.10
2022-11-28T12:14:57.813Z,16.50
2022-11-28T12:17:53.411Z,9.73
2022-11-28T12:20:29.527Z,8.27
2022-11-28T12:23:39.200Z,9.38
2022-11-28T12:26:30.257Z,7.25
2022-11-28T12:29:03.514Z,10.05
2022-11-28T12:31:56.593Z,9.75
2022-11-28T12:34:42.701Z,17.23
2022-11-28T12:37:09.028Z,15.57
2022-11-28T12:39:50.432Z,9.43
2022-11-28T12:42:47.443Z,9.93
2022-11-28T12:45:41.910Z,9.48
2022-11-28T12:48:23.946Z,14.38
2022-11-28T12:51:07.473Z,87.50
2022-11-28T12:54:00.265Z,46.40
2022-11-28T12:56:45.076Z,54.90
2022-11-28T12:59:30.529Z,48.60
2022-11-28T13:02:15.222Z,41.42
2022-11-28T13:05:03.604Z,25.95
2022-11-28T13:07:52.108Z,16.15
2022-11-28T13:10:31.804Z,13.38
2022-11-28T13:13:03.237Z,11.18
2022-11-28T13:16:06.697Z,12.38
2022-11-28T13:18:40.736Z,7.93
2022-11-28T13:21:12.925Z,9.43
2022-11-28T13:23:53.496Z,11.32
2022-11-28T13:26:45.930Z,9.63
2022-11-28T13:29:52.092Z,9.40
2022-11-28T13:32:59.256Z,10.32
2022-11-28T13:35:30.434Z,9.43
2022-11-28T13:38:35.974Z,8.25
2022-11-28T13:45:07.167Z,6.80
2022-11-28T13:47:37.897Z,6.32
2022-11-28T13:51:01.379Z,5.82
2022-11-28T13:53:35.740Z,6.05
2022-11-28T13:56:08.185Z,6.57
2022-11-28T13:58:52.811Z,6.45
2022-11-28T14:01:44.627Z,10.52
2022-11-28T14:04:15.251Z,11.93
2022-11-28T14:06:46.353Z,5.45
2022-11-28T14:09:40.043Z,6.00
2022-11-28T14:12:31.198Z,6.28
2022-11-28T14:15:38.387Z,9.70
2022-11-28T14:19:02.039Z,7.43
2022-11-28T14:22:16.199Z,6.28
2022-11-28T14:25:04.426Z,9.50
2022-11-28T14:27:34.622Z,5.05
2022-11-28T14:30:34.353Z,8.63
2022-11-28T14:33:36.817Z,9.05
2022-11-28T14:36:41.744Z,14.32
2022-11-28T14:39:15.402Z,6.72
2022-11-28T14:42:09.752Z,7.22
2022-11-28T14:44:50.527Z,6.45
2022-11-28T14:47:42.722Z,6.82
2022-11-28T14:50:13.275Z,7.78
2022-11-28T14:52:48.246Z,6.00
2022-11-28T14:55:22.492Z,19.75
2022-11-28T14:58:05.186Z,9.00
2022-11-28T15:00:49.359Z,7.53
2022-11-28T15:03:19.663Z,5.38
2022-11-28T15:06:02.922Z,10.65
2022-11-28T15:08:45.513Z,9.20
2022-11-28T15:11:25.635Z,9.05
2022-11-28T15:14:25.640Z,11.63
2022-11-28T15:17:06.807Z,10.50
2022-11-28T15:19:43.126Z,72.28
2022-11-28T15:22:41.905Z,84.70
2022-11-28T15:25:22.121Z,93.35
2022-11-28T15:27:48.978Z,59.15
2022-11-28T15:30:26.278Z,37.72
2022-11-28T15:33:00.021Z,32.17
2022-11-28T15:35:27.841Z,23.75
2022-11-28T15:37:57.281Z,16.67
2022-11-28T15:40:38.015Z,19.58
2022-11-28T15:43:30.499Z,15.55
2022-11-28T15:46:03.901Z,16.73
2022-11-28T15:49:21.927Z,22.80
2022-11-28T15:51:59.621Z,36.35
2022-11-28T15:54:40.828Z,32.08
2022-11-28T15:57:23.888Z,29.23
2022-11-28T15:59:50.552Z,26.35
2022-11-28T16:02:36.484Z,18.05
2022-11-28T16:05:11.019Z,14.93
2022-11-28T16:07:42.526Z,12.60
2022-11-28T16:10:33.141Z,12.88
2022-11-28T16:13:10.605Z,14.00
2022-11-28T16:15:49.860Z,17.05
2022-11-28T16:18:29.086Z,16.20
2022-11-28T16:21:12.910Z,9.43
2022-11-28T16:23:43.474Z,12.80
2022-11-28T16:26:25.614Z,10.32
2022-11-28T16:29:14.683Z,10.77
2022-11-28T16:31:43.949Z,11.05
2022-11-28T16:34:14.886Z,9.20
2022-11-28T16:36:47.950Z,9.82
2022-11-28T16:39:17.697Z,9.70
2022-11-28T16:42:17.091Z,10.68
2022-11-28T16:44:44.838Z,8.07
2022-11-28T16:47:30.176Z,13.63
2022-11-28T16:50:17.886Z,13.90
2022-11-28T16:52:52.507Z,13.35
2022-11-28T16:55:32.221Z,14.75
2022-11-28T16:58:20.617Z,20.67
2022-11-28T17:00:59.752Z,18.92
2022-11-28T17:03:53.646Z,15.75
2022-11-28T17:06:33.765Z,16.92
2022-11-28T17:09:01.626Z,16.45
2022-11-28T17:11:35.065Z,21.83
2022-11-28T17:14:10.158Z,21.65
2022-11-28T17:16:47.057Z,24.58
2022-11-28T17:19:19.794Z,23.08
2022-11-28T17:21:51.992Z,20.75
2022-11-28T17:24:26.265Z,21.92
2022-11-28T17:26:54.368Z,20.35
2022-11-28T17:29:28.533Z,17.70
2022-11-28T17:31:59.432Z,14.27
2022-11-28T17:34:31.148Z,13.25
2022-11-28T17:37:16.855Z,16.45
2022-11-28T17:40:01.950Z,20.30
2022-11-28T17:42:34.417Z,11.18
2022-11-28T17:45:00.862Z,13.25
2022-11-28T17:47:28.288Z,11.27
2022-11-28T17:49:55.452Z,9.38
2022-11-28T17:52:27.829Z,9.73
2022-11-28T17:54:58.922Z,15.10
2022-11-28T17:57:37.752Z,9.73
2022-11-28T18:00:09.039Z,10.27
2022-11-28T18:02:43.485Z,13.55
2022-11-28T18:05:18.790Z,13.88
2022-11-28T18:07:45.374Z,11.80
2022-11-28T18:10:12.341Z,15.13
2022-11-28T18:12:53.064Z,12.48
2022-11-28T18:15:28.513Z,11.43
2022-11-28T18:17:55.288Z,13.40
2022-11-28T18:20:22.107Z,13.68
2022-11-28T18:22:48.527Z,15.57
2022-11-28T18:25:15.047Z,11.65
2022-11-28T18:27:54.802Z,12.45
2022-11-28T18:30:21.253Z,12.65
2022-11-28T18:33:07.042Z,15.45
2022-11-28T18:35:33.437Z,15.98
2022-11-28T18:38:00.050Z,16.77
2022-11-28T18:40:29.625Z,17.27
2022-11-28T18:42:56.286Z,19.98
2022-11-28T18:45:22.937Z,22.60
2022-11-28T18:47:49.349Z,24.63
2022-11-28T18:50:16.899Z,24.55
2022-11-28T18:52:44.329Z,22.02
2022-11-28T18:55:10.756Z,17.92
2022-11-28T18:57:37.397Z,19.42
2022-11-28T19:00:11.713Z,25.20
2022-11-28T19:02:38.208Z,30.15
2022-11-28T19:05:05.048Z,23.75
2022-11-28T19:07:31.507Z,24.40
2022-11-28T19:09:57.920Z,28.52
2022-11-28T19:12:24.420Z,27.73
2022-11-28T19:14:52.812Z,24.88
2022-11-28T19:17:24.646Z,25.80
2022-11-28T19:19:51.752Z,27.08
2022-11-28T19:22:40.886Z,25.55
2022-11-28T19:25:08.074Z,27.80
2022-11-28T19:27:34.483Z,25.92
2022-11-28T19:30:04.007Z,25.10
2022-11-28T19:32:53.268Z,26.52
2022-11-28T19:35:39.061Z,23.42
2022-11-28T19:38:07.694Z,19.40
2022-11-28T19:40:38.102Z,24.27
2022-11-28T19:43:07.646Z,27.60
2022-11-28T19:45:40.022Z,24.30
2022-11-28T19:48:22.275Z,27.33
2022-11-28T19:50:49.842Z,24.98
2022-11-28T19:53:16.804Z,24.52
2022-11-28T19:55:44.358Z,28.13
2022-11-28T19:58:13.338Z,35.00
2022-11-28T20:00:53.856Z,29.65
2022-11-28T20:03:22.322Z,33.15
2022-11-28T20:05:55.906Z,32.83
2022-11-28T20:08:23.530Z,31.45
2022-11-28T20:11:19.786Z,29.77
2022-11-28T20:13:47.528Z,30.63
2022-11-28T20:16:34.578Z,33.78
2022-11-28T20:19:14.194Z,28.50
2022-11-28T20:21:51.421Z,26.48
2022-11-28T20:24:24.397Z,24.20
2022-11-28T20:26:51.322Z,24.63
2022-11-28T20:29:20.021Z,24.30
2022-11-28T20:31:59.654Z,23.30
2022-11-28T20:34:30.270Z,23.23
2022-11-28T20:36:59.210Z,21.40
2022-11-28T20:39:29.709Z,19.30
2022-11-28T20:42:03.752Z,23.45
2022-11-28T20:44:49.603Z,22.20
2022-11-28T20:47:18.141Z,21.05
2022-11-28T20:49:48.650Z,21.08
2022-11-28T20:52:16.155Z,21.73
2022-11-28T20:54:42.690Z,20.42
2022-11-28T20:57:25.503Z,18.80
2022-11-28T21:00:08.871Z,18.08
2022-11-28T21:02:35.370Z,20.85
2022-11-28T21:05:01.862Z,18.13
2022-11-28T21:07:34.497Z,17.13
2022-11-28T21:10:03.683Z,20.42
2022-11-28T21:12:30.067Z,22.10
2022-11-28T21:14:56.829Z,22.25
2022-11-28T21:17:23.390Z,20.08
2022-11-28T21:19:49.849Z,16.73
2022-11-28T21:22:23.399Z,21.15
2022-11-28T21:24:51.268Z,19.13
2022-11-28T21:27:19.855Z,18.60
2022-11-28T21:30:01.889Z,18.35
2022-11-28T21:32:29.321Z,19.25
2022-11-28T21:35:01.051Z,21.23
2022-11-28T21:37:31.504Z,20.02
2022-11-28T21:39:57.974Z,19.38
2022-11-28T21:42:26.458Z,23.35
2022-11-28T21:44:52.936Z,20.98
2022-11-28T21:47:19.350Z,20.52
2022-11-28T21:49:47.077Z,20.05
2022-11-28T21:52:13.541Z,20.42
2022-11-28T21:54:42.092Z,18.40
2022-11-28T21:57:08.504Z,17.15
2022-11-28T21:59:35.021Z,22.13
2022-11-28T22:02:08.570Z,21.88
2022-11-28T22:07:05.097Z,20.55
2022-11-28T22:09:31.528Z,19.45
2022-11-28T22:11:57.941Z,20.98
2022-11-28T22:14:48.139Z,19.42
2022-11-28T22:17:14.652Z,16.08
2022-11-28T22:19:41.418Z,20.02
2022-11-28T22:22:14.078Z,18.75
2022-11-28T22:24:40.491Z,18.92
2022-11-28T22:27:06.907Z,15.95
2022-11-28T22:29:33.593Z,13.00
2022-11-28T22:32:00.198Z,13.63
2022-11-28T22:34:26.729Z,17.55
2022-11-28T22:37:11.503Z,13.20
2022-11-28T22:39:47.240Z,16.33
2022-11-28T22:42:13.879Z,15.10
2022-11-28T22:44:48.464Z,16.58
2022-11-28T22:47:14.933Z,14.98
2022-11-28T22:49:42.361Z,15.45
2022-11-28T22:52:12.863Z,15.63
2022-11-28T22:54:39.302Z,13.55
2022-11-28T22:57:13.746Z,14.52
2022-11-28T22:59:40.202Z,15.90
2022-11-28T23:02:24.050Z,15.88
2022-11-28T23:05:01.947Z,11.73
2022-11-28T23:07:35.763Z,15.50
2022-11-28T23:10:02.428Z,14.82
2022-11-28T23:12:28.918Z,12.27
2022-11-28T23:14:55.333Z,12.18
2022-11-28T23:17:41.096Z,11.88
2022-11-28T23:20:15.808Z,16.30
2022-11-28T23:22:44.411Z,14.32
2022-11-28T23:25:14.067Z,14.00
2022-11-28T23:27:42.521Z,14.32
2022-11-28T23:30:10.387Z,16.30
2022-11-28T23:32:59.634Z,17.15
2022-11-28T23:35:28.158Z,13.07
2022-11-28T23:37:55.646Z,14.45
2022-11-28T23:40:22.261Z,13.13
2022-11-28T23:42:49.693Z,12.70
2022-11-28T23:45:17.217Z,13.65
2022-11-28T23:47:51.763Z,12.55
2022-11-28T23:50:19.402Z,13.20
2022-11-28T23:52:45.845Z,15.98
2022-11-28T23:55:12.366Z,18.13
2022-11-28T23:57:38.761Z,14.52
